sensor_id;sensor_type;location;lat;lon;timestamp;temperature;humidity
28725;DHT22;43472;48.980;9.646;2023-08-01T00:04:47;17.30;99.90
28725;DHT22;43472;48.980;9.646;2023-08-01T00:09:50;17.40;99.90
28725;DHT22;43472;48.980;9.646;2023-08-01T00:14:52;17.30;99.90
28725;DHT22;43472;48.980;9.646;2023-08-01T00:19:54;17.40;99.90
28725;DHT22;43472;48.980;9.646;2023-08-01T00:24:56;17.50;99.90
28725;DHT22;43472;48.980;9.646;2023-08-01T00:29:58;17.40;99.90
28725;DHT22;43472;48.980;9.646;2023-08-01T00:35:01;17.50;99.90
28725;DHT22;43472;48.980;9.646;2023-08-01T00:40:03;17.30;99.90
28725;DHT22;43472;48.980;9.646;2023-08-01T00:45:07;17.30;99.90
28725;DHT22;43472;48.980;9.646;2023-08-01T00:50:09;17.20;99.90
28725;DHT22;43472;48.980;9.646;2023-08-01T00:55:11;17.10;99.90
28725;DHT22;43472;48.980;9.646;2023-08-01T01:00:13;17.20;99.90
28725;DHT22;43472;48.980;9.646;2023-08-01T01:05:15;17.00;99.90
28725;DHT22;43472;48.980;9.646;2023-08-01T01:10:18;17.00;99.90
28725;DHT22;43472;48.980;9.646;2023-08-01T01:15:19;17.00;99.90
28725;DHT22;43472;48.980;9.646;2023-08-01T01:20:24;16.90;99.90
28725;DHT22;43472;48.980;9.646;2023-08-01T01:25:27;16.80;99.90
28725;DHT22;43472;48.980;9.646;2023-08-01T01:30:31;16.90;99.90
28725;DHT22;43472;48.980;9.646;2023-08-01T01:35:35;16.80;99.90
28725;DHT22;43472;48.980;9.646;2023-08-01T01:40:37;16.90;99.90
28725;DHT22;43472;48.980;9.646;2023-08-01T01:45:40;17.10;99.90
28725;DHT22;43472;48.980;9.646;2023-08-01T01:50:41;17.20;99.90
28725;DHT22;43472;48.980;9.646;2023-08-01T01:55:43;17.00;99.90
28725;DHT22;43472;48.980;9.646;2023-08-01T02:00:46;17.00;99.90
28725;DHT22;43472;48.980;9.646;2023-08-01T02:05:49;16.90;99.90
28725;DHT22;43472;48.980;9.646;2023-08-01T02:10:50;16.80;99.90
28725;DHT22;43472;48.980;9.646;2023-08-01T02:15:52;16.90;99.90
28725;DHT22;43472;48.980;9.646;2023-08-01T02:20:56;16.80;99.90
28725;DHT22;43472;48.980;9.646;2023-08-01T02:25:58;16.70;99.90
28725;DHT22;43472;48.980;9.646;2023-08-01T02:31:00;16.80;99.90
28725;DHT22;43472;48.980;9.646;2023-08-01T02:36:02;16.70;99.90
28725;DHT22;43472;48.980;9.646;2023-08-01T02:41:04;16.70;99.90
28725;DHT22;43472;48.980;9.646;2023-08-01T02:46:05;16.80;99.90
28725;DHT22;43472;48.980;9.646;2023-08-01T02:51:08;16.80;99.90
28725;DHT22;43472;48.980;9.646;2023-08-01T02:56:11;16.00;99.90
28725;DHT22;43472;48.980;9.646;2023-08-01T03:01:13;16.80;99.90
28725;DHT22;43472;48.980;9.646;2023-08-01T03:06:15;16.90;99.90
28725;DHT22;43472;48.980;9.646;2023-08-01T03:11:18;16.80;99.90
28725;DHT22;43472;48.980;9.646;2023-08-01T03:16:19;16.80;99.90
28725;DHT22;43472;48.980;9.646;2023-08-01T03:21:23;16.90;99.90
28725;DHT22;43472;48.980;9.646;2023-08-01T03:26:25;16.90;99.90
28725;DHT22;43472;48.980;9.646;2023-08-01T03:31:27;16.80;99.90
28725;DHT22;43472;48.980;9.646;2023-08-01T03:36:29;16.80;99.90
28725;DHT22;43472;48.980;9.646;2023-08-01T03:41:32;16.80;99.90
28725;DHT22;43472;48.980;9.646;2023-08-01T03:46:35;16.70;99.90
28725;DHT22;43472;48.980;9.646;2023-08-01T03:51:37;16.80;99.90
28725;DHT22;43472;48.980;9.646;2023-08-01T03:56:39;16.80;99.90
28725;DHT22;43472;48.980;9.646;2023-08-01T04:01:45;16.80;99.90
28725;DHT22;43472;48.980;9.646;2023-08-01T04:06:47;16.70;99.90
28725;DHT22;43472;48.980;9.646;2023-08-01T04:16:52;16.70;99.90
28725;DHT22;43472;48.980;9.646;2023-08-01T04:21:53;16.70;99.90
28725;DHT22;43472;48.980;9.646;2023-08-01T04:26:55;16.90;99.90
28725;DHT22;43472;48.980;9.646;2023-08-01T04:31:57;17.10;99.90
28725;DHT22;43472;48.980;9.646;2023-08-01T04:36:59;17.30;99.90
28725;DHT22;43472;48.980;9.646;2023-08-01T04:42:01;17.30;99.90
28725;DHT22;43472;48.980;9.646;2023-08-01T04:47:04;17.40;99.90
28725;DHT22;43472;48.980;9.646;2023-08-01T04:52:06;17.40;99.90
28725;DHT22;43472;48.980;9.646;2023-08-01T04:57:09;17.20;99.90
28725;DHT22;43472;48.980;9.646;2023-08-01T05:02:11;17.40;99.90
28725;DHT22;43472;48.980;9.646;2023-08-01T05:07:13;17.30;99.90
28725;DHT22;43472;48.980;9.646;2023-08-01T05:12:15;17.30;99.90
28725;DHT22;43472;48.980;9.646;2023-08-01T05:17:17;17.30;99.90
28725;DHT22;43472;48.980;9.646;2023-08-01T05:22:19;17.30;99.90
28725;DHT22;43472;48.980;9.646;2023-08-01T05:27:21;17.30;99.90
28725;DHT22;43472;48.980;9.646;2023-08-01T05:32:23;17.00;99.90
28725;DHT22;43472;48.980;9.646;2023-08-01T05:37:25;16.90;99.90
28725;DHT22;43472;48.980;9.646;2023-08-01T05:42:27;16.90;99.90
28725;DHT22;43472;48.980;9.646;2023-08-01T05:47:29;17.00;99.90
28725;DHT22;43472;48.980;9.646;2023-08-01T05:52:31;16.90;99.90
28725;DHT22;43472;48.980;9.646;2023-08-01T05:57:33;16.80;99.90
28725;DHT22;43472;48.980;9.646;2023-08-01T06:02:35;16.70;99.90
28725;DHT22;43472;48.980;9.646;2023-08-01T06:07:37;16.90;99.90
28725;DHT22;43472;48.980;9.646;2023-08-01T06:12:41;16.90;99.90
28725;DHT22;43472;48.980;9.646;2023-08-01T06:17:42;17.10;99.90
28725;DHT22;43472;48.980;9.646;2023-08-01T06:22:48;17.00;99.90
28725;DHT22;43472;48.980;9.646;2023-08-01T06:27:51;17.00;99.90
28725;DHT22;43472;48.980;9.646;2023-08-01T06:32:54;17.10;99.90
28725;DHT22;43472;48.980;9.646;2023-08-01T06:37:56;17.10;99.90
28725;DHT22;43472;48.980;9.646;2023-08-01T06:42:58;17.00;99.90
28725;DHT22;43472;48.980;9.646;2023-08-01T06:53:02;17.00;99.90
28725;DHT22;43472;48.980;9.646;2023-08-01T06:58:05;18.00;99.90
28725;DHT22;43472;48.980;9.646;2023-08-01T07:03:07;16.80;99.90
28725;DHT22;43472;48.980;9.646;2023-08-01T07:08:09;16.70;99.90
28725;DHT22;43472;48.980;9.646;2023-08-01T07:13:12;16.70;99.90
28725;DHT22;43472;48.980;9.646;2023-08-01T07:18:14;16.60;99.90
28725;DHT22;43472;48.980;9.646;2023-08-01T07:28:18;16.60;99.90
28725;DHT22;43472;48.980;9.646;2023-08-01T07:33:21;16.80;99.90
28725;DHT22;43472;48.980;9.646;2023-08-01T07:38:23;16.60;99.90
28725;DHT22;43472;48.980;9.646;2023-08-01T07:43:26;16.60;99.90
28725;DHT22;43472;48.980;9.646;2023-08-01T07:48:28;17.10;99.90
28725;DHT22;43472;48.980;9.646;2023-08-01T07:53:30;16.50;99.90
28725;DHT22;43472;48.980;9.646;2023-08-01T07:58:32;16.50;99.90
28725;DHT22;43472;48.980;9.646;2023-08-01T08:18:42;16.50;99.90
28725;DHT22;43472;48.980;9.646;2023-08-01T08:23:44;16.80;99.90
28725;DHT22;43472;48.980;9.646;2023-08-01T08:28:47;16.80;99.90
28725;DHT22;43472;48.980;9.646;2023-08-01T08:33:49;16.60;99.90
28725;DHT22;43472;48.980;9.646;2023-08-01T08:43:57;16.80;99.90
28725;DHT22;43472;48.980;9.646;2023-08-01T08:49:00;16.90;99.90
28725;DHT22;43472;48.980;9.646;2023-08-01T08:54:02;16.70;99.90
28725;DHT22;43472;48.980;9.646;2023-08-01T08:59:04;16.70;99.90
28725;DHT22;43472;48.980;9.646;2023-08-01T09:04:07;17.00;99.90
28725;DHT22;43472;48.980;9.646;2023-08-01T09:09:11;16.90;99.90
28725;DHT22;43472;48.980;9.646;2023-08-01T09:14:15;16.90;99.90
28725;DHT22;43472;48.980;9.646;2023-08-01T09:19:23;16.80;99.90
28725;DHT22;43472;48.980;9.646;2023-08-01T09:24:25;16.80;99.90
28725;DHT22;43472;48.980;9.646;2023-08-01T09:34:31;16.50;99.90
28725;DHT22;43472;48.980;9.646;2023-08-01T09:39:33;16.50;99.90
28725;DHT22;43472;48.980;9.646;2023-08-01T09:49:48;16.50;99.90
28725;DHT22;43472;48.980;9.646;2023-08-01T09:54:55;16.80;99.90
28725;DHT22;43472;48.980;9.646;2023-08-01T09:59:59;17.20;99.90
28725;DHT22;43472;48.980;9.646;2023-08-01T10:05:02;17.10;99.90
28725;DHT22;43472;48.980;9.646;2023-08-01T10:10:06;17.60;99.90
28725;DHT22;43472;48.980;9.646;2023-08-01T10:15:08;17.80;99.90
28725;DHT22;43472;48.980;9.646;2023-08-01T10:20:14;17.80;99.90
28725;DHT22;43472;48.980;9.646;2023-08-01T10:25:18;18.00;99.90
28725;DHT22;43472;48.980;9.646;2023-08-01T10:30:26;17.90;99.90
28725;DHT22;43472;48.980;9.646;2023-08-01T10:35:32;17.90;99.90
28725;DHT22;43472;48.980;9.646;2023-08-01T10:40:40;17.80;99.90
28725;DHT22;43472;48.980;9.646;2023-08-01T10:45:43;18.00;99.90
28725;DHT22;43472;48.980;9.646;2023-08-01T10:50:57;17.90;99.90
28725;DHT22;43472;48.980;9.646;2023-08-01T10:55:59;18.10;99.90
28725;DHT22;43472;48.980;9.646;2023-08-01T11:01:01;18.00;99.90
28725;DHT22;43472;48.980;9.646;2023-08-01T11:06:03;18.70;99.90
28725;DHT22;43472;48.980;9.646;2023-08-01T11:11:10;18.70;99.90
28725;DHT22;43472;48.980;9.646;2023-08-01T11:16:16;19.50;99.90
28725;DHT22;43472;48.980;9.646;2023-08-01T11:21:26;20.10;99.90
28725;DHT22;43472;48.980;9.646;2023-08-01T11:26:32;20.10;99.90
28725;DHT22;43472;48.980;9.646;2023-08-01T11:31:35;20.50;99.90
28725;DHT22;43472;48.980;9.646;2023-08-01T11:36:37;20.70;99.90
28725;DHT22;43472;48.980;9.646;2023-08-01T11:41:42;20.60;99.90
28725;DHT22;43472;48.980;9.646;2023-08-01T11:46:44;20.00;99.90
28725;DHT22;43472;48.980;9.646;2023-08-01T11:51:46;20.90;99.90
28725;DHT22;43472;48.980;9.646;2023-08-01T11:56:48;20.90;99.90
28725;DHT22;43472;48.980;9.646;2023-08-01T12:01:50;21.10;99.90
28725;DHT22;43472;48.980;9.646;2023-08-01T12:06:52;21.20;99.90
28725;DHT22;43472;48.980;9.646;2023-08-01T12:12:00;21.20;99.90
28725;DHT22;43472;48.980;9.646;2023-08-01T12:17:06;20.90;99.90
28725;DHT22;43472;48.980;9.646;2023-08-01T12:22:08;21.20;99.90
28725;DHT22;43472;48.980;9.646;2023-08-01T12:27:11;22.00;99.90
28725;DHT22;43472;48.980;9.646;2023-08-01T12:32:13;22.40;99.90
28725;DHT22;43472;48.980;9.646;2023-08-01T12:37:15;21.10;99.90
28725;DHT22;43472;48.980;9.646;2023-08-01T12:42:17;21.20;99.90
28725;DHT22;43472;48.980;9.646;2023-08-01T12:47:20;20.70;99.90
28725;DHT22;43472;48.980;9.646;2023-08-01T12:52:24;20.70;99.90
28725;DHT22;43472;48.980;9.646;2023-08-01T12:57:30;21.80;99.90
28725;DHT22;43472;48.980;9.646;2023-08-01T13:02:32;21.70;99.90
28725;DHT22;43472;48.980;9.646;2023-08-01T13:07:35;22.40;99.90
28725;DHT22;43472;48.980;9.646;2023-08-01T13:12:39;22.50;99.90
28725;DHT22;43472;48.980;9.646;2023-08-01T13:17:41;22.20;99.90
28725;DHT22;43472;48.980;9.646;2023-08-01T13:22:45;22.80;99.90
28725;DHT22;43472;48.980;9.646;2023-08-01T13:27:47;22.80;99.90
28725;DHT22;43472;48.980;9.646;2023-08-01T13:32:49;22.30;99.90
28725;DHT22;43472;48.980;9.646;2023-08-01T13:37:51;23.00;99.90
28725;DHT22;43472;48.980;9.646;2023-08-01T13:42:53;23.10;99.90
28725;DHT22;43472;48.980;9.646;2023-08-01T13:47:55;22.60;99.90
28725;DHT22;43472;48.980;9.646;2023-08-01T13:52:58;22.90;99.90
28725;DHT22;43472;48.980;9.646;2023-08-01T13:58:00;22.70;99.90
28725;DHT22;43472;48.980;9.646;2023-08-01T14:03:03;21.80;99.90
28725;DHT22;43472;48.980;9.646;2023-08-01T14:08:05;21.90;99.90
28725;DHT22;43472;48.980;9.646;2023-08-01T14:13:07;22.20;99.90
28725;DHT22;43472;48.980;9.646;2023-08-01T14:18:09;22.20;99.90
28725;DHT22;43472;48.980;9.646;2023-08-01T14:23:11;22.80;99.90
28725;DHT22;43472;48.980;9.646;2023-08-01T14:28:14;23.20;99.90
28725;DHT22;43472;48.980;9.646;2023-08-01T14:33:18;22.80;99.90
28725;DHT22;43472;48.980;9.646;2023-08-01T14:38:22;22.60;99.90
28725;DHT22;43472;48.980;9.646;2023-08-01T14:43:25;22.90;99.90
28725;DHT22;43472;48.980;9.646;2023-08-01T14:48:27;22.80;99.90
28725;DHT22;43472;48.980;9.646;2023-08-01T14:53:28;22.10;99.90
28725;DHT22;43472;48.980;9.646;2023-08-01T14:58:32;22.50;99.90
28725;DHT22;43472;48.980;9.646;2023-08-01T15:03:34;22.80;99.90
28725;DHT22;43472;48.980;9.646;2023-08-01T15:08:38;22.20;99.90
28725;DHT22;43472;48.980;9.646;2023-08-01T15:13:40;22.60;99.90
28725;DHT22;43472;48.980;9.646;2023-08-01T15:18:42;22.60;99.90
28725;DHT22;43472;48.980;9.646;2023-08-01T15:23:47;22.10;99.90
28725;DHT22;43472;48.980;9.646;2023-08-01T15:28:50;22.10;99.90
28725;DHT22;43472;48.980;9.646;2023-08-01T15:33:52;22.70;99.90
28725;DHT22;43472;48.980;9.646;2023-08-01T15:38:57;22.80;99.90
28725;DHT22;43472;48.980;9.646;2023-08-01T15:44:02;22.60;99.90
28725;DHT22;43472;48.980;9.646;2023-08-01T15:49:05;22.30;99.90
28725;DHT22;43472;48.980;9.646;2023-08-01T15:54:07;22.10;99.90
28725;DHT22;43472;48.980;9.646;2023-08-01T16:04:12;21.40;99.90
28725;DHT22;43472;48.980;9.646;2023-08-01T16:09:16;21.80;99.90
28725;DHT22;43472;48.980;9.646;2023-08-01T16:14:18;22.10;99.90
28725;DHT22;43472;48.980;9.646;2023-08-01T16:19:40;22.40;99.90
28725;DHT22;43472;48.980;9.646;2023-08-01T16:24:44;21.80;99.90
28725;DHT22;43472;48.980;9.646;2023-08-01T16:29:47;21.70;99.90
28725;DHT22;43472;48.980;9.646;2023-08-01T16:34:50;22.10;99.90
28725;DHT22;43472;48.980;9.646;2023-08-01T16:39:52;22.10;99.90
28725;DHT22;43472;48.980;9.646;2023-08-01T16:44:54;21.60;99.90
28725;DHT22;43472;48.980;9.646;2023-08-01T16:49:56;21.50;99.90
28725;DHT22;43472;48.980;9.646;2023-08-01T16:54:58;21.40;99.90
28725;DHT22;43472;48.980;9.646;2023-08-01T17:00:00;21.50;99.90
28725;DHT22;43472;48.980;9.646;2023-08-01T17:05:02;21.30;99.90
28725;DHT22;43472;48.980;9.646;2023-08-01T17:10:05;21.30;99.90
28725;DHT22;43472;48.980;9.646;2023-08-01T17:15:07;21.10;99.90
28725;DHT22;43472;48.980;9.646;2023-08-01T17:20:09;20.90;99.90
28725;DHT22;43472;48.980;9.646;2023-08-01T17:25:11;21.00;99.90
28725;DHT22;43472;48.980;9.646;2023-08-01T17:30:13;20.90;99.90
28725;DHT22;43472;48.980;9.646;2023-08-01T17:35:16;20.90;99.90
28725;DHT22;43472;48.980;9.646;2023-08-01T17:40:18;20.50;99.90
28725;DHT22;43472;48.980;9.646;2023-08-01T17:45:20;20.30;99.90
28725;DHT22;43472;48.980;9.646;2023-08-01T17:50:22;20.30;99.90
28725;DHT22;43472;48.980;9.646;2023-08-01T17:55:26;20.30;99.90
28725;DHT22;43472;48.980;9.646;2023-08-01T18:00:31;20.30;99.90
28725;DHT22;43472;48.980;9.646;2023-08-01T18:05:33;20.10;99.90
28725;DHT22;43472;48.980;9.646;2023-08-01T18:10:36;20.10;99.90
28725;DHT22;43472;48.980;9.646;2023-08-01T18:15:38;20.10;99.90
28725;DHT22;43472;48.980;9.646;2023-08-01T18:20:43;20.10;99.90
28725;DHT22;43472;48.980;9.646;2023-08-01T18:25:44;20.10;99.90
28725;DHT22;43472;48.980;9.646;2023-08-01T18:30:47;20.00;99.90
28725;DHT22;43472;48.980;9.646;2023-08-01T18:35:49;19.70;99.90
28725;DHT22;43472;48.980;9.646;2023-08-01T18:40:51;19.70;99.90
28725;DHT22;43472;48.980;9.646;2023-08-01T18:45:54;19.50;99.90
28725;DHT22;43472;48.980;9.646;2023-08-01T18:50:57;19.40;99.90
28725;DHT22;43472;48.980;9.646;2023-08-01T18:56:13;19.30;99.90
28725;DHT22;43472;48.980;9.646;2023-08-01T19:01:21;19.10;99.90
28725;DHT22;43472;48.980;9.646;2023-08-01T19:06:26;19.10;99.90
28725;DHT22;43472;48.980;9.646;2023-08-01T19:11:37;19.20;99.90
28725;DHT22;43472;48.980;9.646;2023-08-01T19:16:40;18.90;99.90
28725;DHT22;43472;48.980;9.646;2023-08-01T19:21:43;19.20;99.90
28725;DHT22;43472;48.980;9.646;2023-08-01T19:26:45;18.70;99.90
28725;DHT22;43472;48.980;9.646;2023-08-01T19:31:49;18.80;99.90
28725;DHT22;43472;48.980;9.646;2023-08-01T19:36:53;18.80;99.90
28725;DHT22;43472;48.980;9.646;2023-08-01T19:41:54;18.70;99.90
28725;DHT22;43472;48.980;9.646;2023-08-01T19:46:57;18.60;99.90
28725;DHT22;43472;48.980;9.646;2023-08-01T19:51:59;18.70;99.90
28725;DHT22;43472;48.980;9.646;2023-08-01T19:57:07;18.70;99.90
28725;DHT22;43472;48.980;9.646;2023-08-01T20:02:09;18.70;99.90
28725;DHT22;43472;48.980;9.646;2023-08-01T20:07:11;18.60;99.90
28725;DHT22;43472;48.980;9.646;2023-08-01T20:12:12;18.50;99.90
28725;DHT22;43472;48.980;9.646;2023-08-01T20:17:16;18.30;99.90
28725;DHT22;43472;48.980;9.646;2023-08-01T20:22:18;18.30;99.90
28725;DHT22;43472;48.980;9.646;2023-08-01T20:27:21;18.30;99.90
28725;DHT22;43472;48.980;9.646;2023-08-01T20:32:23;18.30;99.90
28725;DHT22;43472;48.980;9.646;2023-08-01T20:37:25;18.40;99.90
28725;DHT22;43472;48.980;9.646;2023-08-01T20:42:27;18.40;99.90
28725;DHT22;43472;48.980;9.646;2023-08-01T20:47:29;18.40;99.90
28725;DHT22;43472;48.980;9.646;2023-08-01T20:52:34;18.20;99.90
28725;DHT22;43472;48.980;9.646;2023-08-01T20:57:36;18.10;99.90
28725;DHT22;43472;48.980;9.646;2023-08-01T21:02:38;17.90;99.90
28725;DHT22;43472;48.980;9.646;2023-08-01T21:07:40;17.60;99.90
28725;DHT22;43472;48.980;9.646;2023-08-01T21:12:42;17.70;99.90
28725;DHT22;43472;48.980;9.646;2023-08-01T21:17:44;17.70;99.90
28725;DHT22;43472;48.980;9.646;2023-08-01T21:22:47;17.60;99.90
28725;DHT22;43472;48.980;9.646;2023-08-01T21:27:48;17.60;99.90
28725;DHT22;43472;48.980;9.646;2023-08-01T21:32:51;17.30;99.90
28725;DHT22;43472;48.980;9.646;2023-08-01T21:37:55;17.20;99.90
28725;DHT22;43472;48.980;9.646;2023-08-01T21:42:57;17.10;99.90
28725;DHT22;43472;48.980;9.646;2023-08-01T21:48:00;17.10;99.90
28725;DHT22;43472;48.980;9.646;2023-08-01T21:53:02;17.10;99.90
28725;DHT22;43472;48.980;9.646;2023-08-01T21:58:04;17.00;99.90
28725;DHT22;43472;48.980;9.646;2023-08-01T22:03:07;17.10;99.90
28725;DHT22;43472;48.980;9.646;2023-08-01T22:08:10;17.10;99.90
28725;DHT22;43472;48.980;9.646;2023-08-01T22:13:12;16.70;99.90
28725;DHT22;43472;48.980;9.646;2023-08-01T22:18:14;16.70;99.90
28725;DHT22;43472;48.980;9.646;2023-08-01T22:23:25;16.60;99.90
28725;DHT22;43472;48.980;9.646;2023-08-01T22:28:30;16.60;99.90
28725;DHT22;43472;48.980;9.646;2023-08-01T22:33:33;16.40;99.90
28725;DHT22;43472;48.980;9.646;2023-08-01T22:38:35;16.40;99.90
28725;DHT22;43472;48.980;9.646;2023-08-01T22:43:37;16.40;99.90
28725;DHT22;43472;48.980;9.646;2023-08-01T22:48:39;16.40;99.90
28725;DHT22;43472;48.980;9.646;2023-08-01T22:53:47;16.10;99.90
28725;DHT22;43472;48.980;9.646;2023-08-01T22:58:49;16.00;99.90
28725;DHT22;43472;48.980;9.646;2023-08-01T23:03:51;16.00;99.90
28725;DHT22;43472;48.980;9.646;2023-08-01T23:08:55;15.90;99.90
28725;DHT22;43472;48.980;9.646;2023-08-01T23:13:59;15.50;99.90
28725;DHT22;43472;48.980;9.646;2023-08-01T23:19:01;16.10;99.90
28725;DHT22;43472;48.980;9.646;2023-08-01T23:24:03;15.30;99.90
28725;DHT22;43472;48.980;9.646;2023-08-01T23:29:05;15.30;99.90
28725;DHT22;43472;48.980;9.646;2023-08-01T23:34:07;15.40;99.90
28725;DHT22;43472;48.980;9.646;2023-08-01T23:39:09;15.30;99.90
28725;DHT22;43472;48.980;9.646;2023-08-01T23:44:11;15.10;99.90
28725;DHT22;43472;48.980;9.646;2023-08-01T23:49:13;15.20;99.90
28725;DHT22;43472;48.980;9.646;2023-08-01T23:54:16;14.80;99.90
28725;DHT22;43472;48.980;9.646;2023-08-01T23:59:18;14.90;99.90
